Time;durP1;ratioP1;P1;durP2;ratioP2;P2;SDS_P1;SDS_P2;PMS_P1;PMS_P2;Temp;Humidity;BMP_temperature;BMP_pressure;BME280_temperature;BME280_humidity;BME280_pressure;Samples;Min_cycle;Max_cycle;Signal;HPM_P1;HPM_P2
2022/06/26 00:00:52;;;;;;;6.18;5.53;;;;;;;19.96;58.65;100013.56;10143339;29;20444;-78
2022/06/26 00:05:55;;;;;;;7.38;5.45;;;;;;;20.02;58.24;100021.81;10142561;29;20048;-78
2022/06/26 00:10:58;;;;;;;6.65;5.28;;;;;;;19.89;58.41;100008.88;10143485;29;20048;-78
2022/06/26 00:16:03;;;;;;;5.65;5.20;;;;;;;19.83;58.57;100012.41;10142637;29;20047;-78
2022/06/26 00:21:06;;;;;;;7.40;5.20;;;;;;;19.74;58.89;100012.69;10134513;29;20052;-78
2022/06/26 00:26:09;;;;;;;8.27;6.00;;;;;;;19.68;59.13;100003.44;10133287;29;20048;-77
2022/06/26 00:31:13;;;;;;;7.22;6.03;;;;;;;19.59;59.35;100005.44;10133088;29;20060;-77
2022/06/26 00:36:16;;;;;;;6.38;5.57;;;;;;;19.49;59.65;100010.31;10132568;29;20056;-77
2022/06/26 00:41:19;;;;;;;6.20;5.70;;;;;;;19.43;59.69;100011.91;10135118;29;20055;-77
2022/06/26 00:46:25;;;;;;;7.50;6.00;;;;;;;19.24;60.15;100015.25;10134290;29;20988;-77
2022/06/26 00:51:28;;;;;;;7.97;6.45;;;;;;;19.21;60.25;100010.19;10114568;29;20052;-76
2022/06/26 00:56:31;;;;;;;7.13;6.22;;;;;;;19.20;59.74;100012.06;10137576;29;20094;-77
2022/06/26 01:01:36;;;;;;;7.32;5.53;;;;;;;19.07;59.92;100003.72;10130722;29;20056;-77
2022/06/26 01:06:39;;;;;;;5.78;5.28;;;;;;;18.90;60.25;100003.06;10139441;29;20048;-76
2022/06/26 01:11:43;;;;;;;5.72;5.22;;;;;;;18.89;60.37;100004.09;10143467;29;20591;-77
2022/06/26 01:16:48;;;;;;;7.78;5.00;;;;;;;18.95;60.27;100000.63;10139148;29;20703;-77
2022/06/26 01:21:51;;;;;;;5.57;5.05;;;;;;;18.85;60.17;100000.06;10140703;29;20052;-77
2022/06/26 01:26:55;;;;;;;5.43;4.93;;;;;;;18.88;60.25;100005.13;10143410;29;20059;-77
2022/06/26 01:31:59;;;;;;;6.43;5.82;;;;;;;18.91;59.82;100012.06;10122903;29;20059;-77
2022/06/26 01:37:03;;;;;;;7.07;5.07;;;;;;;18.91;59.79;100010.19;10149302;29;20162;-77
2022/06/26 01:42:08;;;;;;;11.10;5.43;;;;;;;18.84;59.69;100012.00;10121527;29;20514;-76
2022/06/26 01:47:10;;;;;;;7.35;5.68;;;;;;;18.79;59.82;100011.72;10132420;29;20052;-77
2022/06/26 01:52:15;;;;;;;6.82;5.00;;;;;;;18.75;59.60;100004.91;10136455;29;20417;-77
2022/06/26 01:57:22;;;;;;;5.93;5.20;;;;;;;18.64;59.85;100000.78;10128028;29;20528;-77
2022/06/26 02:02:28;;;;;;;5.85;5.35;;;;;;;18.69;59.62;100005.66;10131218;29;20056;-77
2022/06/26 02:07:31;;;;;;;5.35;4.82;;;;;;;18.62;59.69;100004.72;10129994;29;20517;-76
2022/06/26 02:17:57;;;;;;;5.28;4.75;;;;;;;18.81;59.26;100015.06;10123410;29;20055;-77
2022/06/26 02:23:01;;;;;;;6.80;4.88;;;;;;;18.77;59.23;100005.56;10131966;29;20044;-77
2022/06/26 02:28:06;;;;;;;5.55;5.10;;;;;;;18.76;59.27;99996.56;10131812;29;20676;-77
2022/06/26 02:33:09;;;;;;;5.78;5.25;;;;;;;18.71;59.25;100003.59;10133659;29;20130;-76
2022/06/26 02:38:15;;;;;;;7.47;5.03;;;;;;;18.67;59.48;100022.16;10130138;29;20055;-77
2022/06/26 02:43:23;;;;;;;5.25;4.72;;;;;;;18.68;59.57;100009.41;10134658;29;20052;-77
2022/06/26 02:48:26;;;;;;;8.32;5.88;;;;;;;18.75;59.50;100016.63;10135891;29;20399;-77
2022/06/26 02:53:29;;;;;;;5.28;4.80;;;;;;;18.74;59.36;100019.56;10132861;29;20225;-77
2022/06/26 02:58:33;;;;;;;7.22;4.55;;;;;;;17.30;63.75;100077.28;10137513;29;20498;-77
2022/06/26 03:03:38;;;;;;;9.30;5.50;;;;;;;17.69;63.02;100072.69;10123699;29;20127;-77
2022/06/26 03:08:44;;;;;;;7.82;5.10;;;;;;;17.99;62.00;100070.19;10143074;29;20667;-77
2022/06/26 03:13:49;;;;;;;6.00;5.32;;;;;;;18.12;61.71;100064.13;10131792;29;20123;-78
2022/06/26 03:18:52;;;;;;;8.90;5.70;;;;;;;18.43;60.97;100074.94;10132583;29;20123;-77
2022/06/26 03:24:03;;;;;;;7.97;6.05;;;;;;;18.45;60.86;100074.72;10117543;29;20112;-77
2022/06/26 03:29:11;;;;;;;7.57;6.00;;;;;;;18.43;60.65;100069.50;10127510;29;20175;-77
2022/06/26 03:34:14;;;;;;;6.00;5.50;;;;;;;18.53;60.69;100066.50;10106428;29;20058;-77
2022/06/26 03:39:20;;;;;;;5.93;5.43;;;;;;;18.69;60.25;100068.22;10108728;29;20052;-77
2022/06/26 03:44:31;;;;;;;7.50;5.15;;;;;;;18.77;60.00;100084.47;10114276;29;20089;-76
2022/06/26 03:49:34;;;;;;;6.43;5.40;;;;;;;18.91;59.81;100099.16;10121818;29;20060;-76
2022/06/26 03:54:37;;;;;;;8.48;5.47;;;;;;;19.03;59.80;100100.38;10119029;29;20055;-77
2022/06/26 03:59:43;;;;;;;9.68;4.90;;;;;;;19.29;59.50;100086.31;10127019;29;20052;-78
2022/06/26 04:04:48;;;;;;;4.97;4.55;;;;;;;19.56;58.67;100094.88;10119738;29;20052;-77
2022/06/26 04:09:51;;;;;;;5.32;4.78;;;;;;;19.78;58.36;100103.94;10108703;29;20127;-76
2022/06/26 04:14:59;;;;;;;5.15;4.75;;;;;;;19.92;58.03;100094.88;10132739;29;20052;-77
2022/06/26 04:20:02;;;;;;;6.82;5.60;;;;;;;20.05;58.08;100103.22;10120158;29;20091;-77
2022/06/26 04:25:06;;;;;;;6.53;4.88;;;;;;;20.05;57.65;100103.22;10116872;29;20060;-77
2022/06/26 04:30:10;;;;;;;6.68;5.40;;;;;;;20.09;57.49;100095.47;10133789;29;20143;-77
2022/06/26 04:35:17;;;;;;;7.75;5.00;;;;;;;20.31;57.77;100097.19;10115351;29;20227;-77
2022/06/26 04:40:20;;;;;;;6.38;4.75;;;;;;;20.48;58.06;100103.22;10115010;29;20052;-78
2022/06/26 04:45:25;;;;;;;9.32;5.63;;;;;;;20.60;57.92;100108.16;10101312;29;20048;-78
2022/06/26 04:50:32;;;;;;;6.93;5.05;;;;;;;20.70;57.99;100111.38;10103152;29;20056;-77
2022/06/26 04:55:35;;;;;;;8.60;6.00;;;;;;;20.88;57.66;100108.19;10111946;29;20068;-77
2022/06/26 05:00:39;;;;;;;8.75;6.82;;;;;;;20.86;58.54;100129.38;10115457;29;21263;-77
2022/06/26 05:05:49;;;;;;;8.77;7.25;;;;;;;20.86;58.96;100146.59;10133731;29;20167;-77
2022/06/26 05:11:05;;;;;;;8.20;7.07;;;;;;;20.54;60.51;100147.97;10106277;29;20064;-79
2022/06/26 05:16:13;;;;;;;8.25;7.50;;;;;;;19.62;62.31;100152.16;10114127;29;20063;-77
2022/06/26 05:21:16;;;;;;;9.00;8.07;;;;;;;19.88;62.96;100167.16;10127215;29;20052;-78
2022/06/26 05:26:19;;;;;;;12.55;8.40;;;;;;;19.28;65.04;100179.94;10128107;29;20052;-78
2022/06/26 05:31:28;;;;;;;10.45;8.93;;;;;;;19.66;64.44;100190.75;10134701;29;20079;-78
2022/06/26 05:36:34;;;;;;;12.20;8.93;;;;;;;19.39;64.26;100208.56;10135079;29;20599;-77
2022/06/26 05:41:40;;;;;;;9.98;8.13;;;;;;;19.66;64.52;100215.28;10133144;29;20071;-77
2022/06/26 05:46:45;;;;;;;11.35;8.68;;;;;;;19.41;64.52;100206.50;10141796;29;20059;-78
2022/06/26 05:52:07;;;;;;;8.30;7.10;;;;;;;19.19;64.63;100216.44;10143692;29;20198;-78
2022/06/26 05:57:28;;;;;;;8.70;7.65;;;;;;;19.05;65.23;100222.69;10143518;29;20135;-77
2022/06/26 06:02:48;;;;;;;8.80;7.75;;;;;;;19.43;63.38;100232.53;10149523;29;20064;-77
2022/06/26 06:07:56;;;;;;;8.82;7.68;;;;;;;19.39;64.56;100228.50;10140684;29;20048;-77
2022/06/26 06:12:59;;;;;;;8.82;7.30;;;;;;;18.97;65.96;100242.66;10126268;29;20047;-77
2022/06/26 06:18:07;;;;;;;7.15;6.40;;;;;;;19.94;63.25;100244.59;10125673;29;20602;-78
2022/06/26 06:23:12;;;;;;;8.85;7.93;;;;;;;20.33;61.94;100250.59;10138273;29;20147;-77
2022/06/26 06:28:15;;;;;;;8.25;7.45;;;;;;;19.97;63.90;100257.88;10125853;29;20757;-77
2022/06/26 06:33:21;;;;;;;8.43;6.47;;;;;;;19.82;64.58;100249.69;10118488;29;20169;-77
2022/06/26 06:38:25;;;;;;;8.20;7.40;;;;;;;19.76;64.83;100261.34;10121907;29;20399;-77
2022/06/26 06:43:31;;;;;;;8.07;7.28;;;;;;;20.12;63.93;100266.84;10142970;29;20522;-78
2022/06/26 06:48:54;;;;;;;8.13;7.32;;;;;;;20.31;63.52;100274.47;10145184;29;20052;-78
2022/06/26 06:54:08;;;;;;;8.45;6.80;;;;;;;20.18;63.88;100276.16;10144468;29;20052;-78
2022/06/26 06:59:11;;;;;;;7.00;6.40;;;;;;;20.45;60.93;100267.28;10127712;29;20055;-77
2022/06/26 07:04:20;;;;;;;6.50;5.90;;;;;;;20.44;61.21;100271.06;10120163;29;20135;-77
2022/06/26 07:09:22;;;;;;;11.45;5.53;;;;;;;20.16;61.51;100281.81;10117333;29;20059;-76
2022/06/26 07:14:26;;;;;;;5.90;4.82;;;;;;;19.85;62.17;100282.00;10125791;29;20192;-78
2022/06/26 07:19:30;;;;;;;4.82;4.30;;;;;;;21.63;58.01;100290.50;10140808;29;21194;-78
2022/06/26 07:24:36;;;;;;;6.25;5.00;;;;;;;23.17;54.02;100292.88;10114366;29;20076;-78
2022/06/26 07:29:58;;;;;;;6.18;5.57;;;;;;;26.56;46.38;100276.31;10143700;29;20062;-79
2022/06/26 07:35:03;;;;;;;6.05;4.25;;;;;;;27.43;44.41;100275.00;10141325;29;20044;-78
2022/06/26 07:40:07;;;;;;;6.72;4.40;;;;;;;27.39;45.11;100280.97;10136155;29;20052;-79
2022/06/26 07:45:11;;;;;;;5.25;4.78;;;;;;;27.64;42.94;100290.97;10118186;29;20048;-78
2022/06/26 07:50:28;;;;;;;5.22;4.72;;;;;;;24.89;47.16;100293.53;10126364;29;20055;-78
2022/06/26 07:55:31;;;;;;;5.20;4.43;;;;;;;24.11;50.87;100304.66;10139691;29;20059;-77
2022/06/26 08:00:36;;;;;;;5.68;4.55;;;;;;;22.78;53.67;100310.91;10144362;29;20059;-77
2022/06/26 08:05:45;;;;;;;6.68;4.97;;;;;;;21.70;56.79;100319.78;10143824;29;20128;-77
2022/06/26 08:10:48;;;;;;;4.72;4.32;;;;;;;21.81;56.73;100344.72;10143212;29;20048;-77
2022/06/26 08:15:50;;;;;;;9.82;6.25;;;;;;;21.92;56.49;100343.31;10135409;29;20766;-77
2022/06/26 08:20:55;;;;;;;6.22;4.95;;;;;;;22.36;54.99;100360.41;10135843;29;20044;-78
2022/06/26 08:25:58;;;;;;;5.13;4.65;;;;;;;22.39;55.47;100351.78;10139158;29;20123;-78
2022/06/26 08:31:00;;;;;;;4.10;3.70;;;;;;;22.33;54.45;100365.22;10141915;29;20051;-78
2022/06/26 08:36:05;;;;;;;4.55;3.42;;;;;;;23.10;53.50;100365.97;10138796;29;20043;-78
2022/06/26 08:41:09;;;;;;;5.40;4.15;;;;;;;22.48;54.62;100376.06;10120995;29;20141;-77
2022/06/26 08:46:13;;;;;;;4.03;3.40;;;;;;;22.43;53.96;100367.63;10138737;29;20466;-78
2022/06/26 08:51:18;;;;;;;4.75;3.72;;;;;;;22.68;53.95;100361.63;10135810;29;20595;-77
2022/06/26 08:56:21;;;;;;;6.43;3.47;;;;;;;22.47;53.57;100377.13;10135923;29;20052;-77
2022/06/26 09:01:24;;;;;;;2.70;2.50;;;;;;;22.93;52.56;100383.84;10136084;29;20056;-77
2022/06/26 09:06:28;;;;;;;2.63;2.42;;;;;;;22.85;52.57;100390.34;10134295;29;20059;-77
2022/06/26 09:11:38;;;;;;;2.80;2.50;;;;;;;23.16;51.73;100389.84;10132755;29;20055;-77
2022/06/26 09:16:43;;;;;;;2.33;2.13;;;;;;;21.86;55.15;100396.91;10135992;29;20056;-76
2022/06/26 09:21:48;;;;;;;2.28;2.17;;;;;;;22.71;53.82;100400.41;10146232;29;20063;-78
2022/06/26 09:27:10;;;;;;;2.55;1.77;;;;;;;23.00;51.70;100388.28;10146091;29;20052;-78
2022/06/26 09:32:15;;;;;;;2.22;2.13;;;;;;;23.56;51.67;100395.38;10146721;29;20447;-78
2022/06/26 09:37:20;;;;;;;2.53;2.42;;;;;;;23.88;48.88;100388.22;10146030;29;20067;-78
2022/06/26 09:42:43;;;;;;;2.20;2.10;;;;;;;24.23;48.92;100389.88;10144576;29;20407;-78
2022/06/26 09:47:47;;;;;;;2.05;1.83;;;;;;;24.13;49.29;100389.47;10146227;29;20056;-78
2022/06/26 09:52:52;;;;;;;2.65;2.08;;;;;;;24.35;47.99;100396.38;10146684;29;20520;-78
2022/06/26 09:57:55;;;;;;;2.55;2.20;;;;;;;24.58;47.83;100395.09;10147515;29;20474;-78
2022/06/26 10:08:23;;;;;;;2.05;1.70;;;;;;;25.03;48.66;100400.63;10144988;29;20052;-78
2022/06/26 10:13:29;;;;;;;2.55;1.83;;;;;;;25.57;45.21;100402.00;10146139;29;20048;-78
2022/06/26 10:18:47;;;;;;;2.20;2.10;;;;;;;24.72;47.46;100408.56;10140840;29;20112;-78
2022/06/26 10:24:02;;;;;;;3.38;3.15;;;;;;;24.40;47.97;100424.06;10144438;29;20055;-78
2022/06/26 10:29:06;;;;;;;4.38;4.03;;;;;;;23.94;48.60;100426.84;10153108;29;20071;-77
2022/06/26 10:34:10;;;;;;;4.50;4.15;;;;;;;24.53;48.13;100410.31;10150085;29;20052;-78
2022/06/26 10:39:15;;;;;;;4.45;4.10;;;;;;;26.56;45.10;100404.91;10142538;29;20048;-77
2022/06/26 10:44:19;;;;;;;4.88;4.50;;;;;;;28.33;41.87;100393.38;10157879;29;20044;-78
2022/06/26 10:49:22;;;;;;;4.47;4.18;;;;;;;28.35;38.82;100391.19;10152404;29;20250;-78
2022/06/26 10:54:27;;;;;;;6.50;5.90;;;;;;;26.62;41.91;100409.50;10153827;29;20051;-78
2022/06/26 10:59:30;;;;;;;6.13;5.72;;;;;;;27.70;40.96;100407.81;10115509;29;20066;-78
2022/06/26 11:04:43;;;;;;;5.88;5.47;;;;;;;28.34;40.71;100408.00;10151233;29;20067;-78
2022/06/26 11:09:48;;;;;;;5.20;4.90;;;;;;;29.60;37.72;100402.59;10153773;29;20422;-78
2022/06/26 11:14:51;;;;;;;5.20;4.82;;;;;;;28.07;38.72;100400.22;10144362;29;20196;-78
2022/06/26 11:25:18;;;;;;;5.40;5.00;;;;;;;26.77;40.64;100398.06;10143747;29;21298;-77
2022/06/26 11:30:22;;;;;;;4.97;4.60;;;;;;;27.76;40.63;100393.09;10137764;29;20052;-78
2022/06/26 11:35:26;;;;;;;5.30;4.90;;;;;;;28.85;38.26;100381.47;10138281;29;20052;-78
2022/06/26 11:40:30;;;;;;;5.15;4.72;;;;;;;28.14;39.89;100394.56;10140880;29;20076;-77
2022/06/26 11:45:34;;;;;;;5.55;5.15;;;;;;;27.89;40.41;100392.00;10142856;29;20502;-77
2022/06/26 11:50:38;;;;;;;5.45;4.95;;;;;;;27.70;39.33;100388.50;10144570;29;20063;-78
2022/06/26 11:55:47;;;;;;;5.68;5.28;;;;;;;27.95;39.08;100397.44;10135761;29;20124;-78
2022/06/26 12:00:51;;;;;;;5.30;5.00;;;;;;;27.08;40.53;100397.06;10145184;29;20060;-78
2022/06/26 12:05:57;;;;;;;5.88;5.38;;;;;;;27.55;39.11;100395.31;10140169;29;20116;-78
2022/06/26 12:11:02;;;;;;;5.60;5.15;;;;;;;27.97;39.32;100400.78;10143845;29;20044;-79
2022/06/26 12:16:07;;;;;;;5.80;5.40;;;;;;;27.55;39.60;100406.34;10147376;29;20163;-79
2022/06/26 12:21:18;;;;;;;6.22;5.72;;;;;;;25.99;41.64;100405.88;10151261;29;20091;-79
2022/06/26 12:26:23;;;;;;;6.55;6.03;;;;;;;26.55;41.92;100414.22;10127302;29;20052;-79
2022/06/26 12:31:26;;;;;;;6.30;5.80;;;;;;;26.31;42.69;100425.09;10132244;29;20056;-79
2022/06/26 12:36:29;;;;;;;6.30;5.90;;;;;;;26.44;41.47;100427.72;10141841;29;20150;-78
2022/06/26 12:41:33;;;;;;;6.53;6.03;;;;;;;25.63;44.17;100421.22;10115226;29;20048;-78
2022/06/26 12:46:36;;;;;;;7.43;6.90;;;;;;;25.24;44.75;100424.22;10130336;29;20146;-78
2022/06/26 12:51:40;;;;;;;6.85;6.40;;;;;;;25.55;44.69;100417.84;10166080;29;20162;-78
2022/06/26 12:56:44;;;;;;;7.72;7.13;;;;;;;26.02;43.41;100424.69;10151956;29;20044;-77
2022/06/26 13:01:47;;;;;;;8.52;7.75;;;;;;;27.48;40.99;100415.81;10129968;29;20159;-78
2022/06/26 13:06:50;;;;;;;7.93;7.38;;;;;;;27.37;40.96;100417.41;10157190;29;20048;-77
2022/06/26 13:11:54;;;;;;;8.50;7.78;;;;;;;25.69;42.97;100427.72;10134536;29;20059;-78
2022/06/26 13:16:57;;;;;;;7.95;7.15;;;;;;;25.98;43.72;100425.38;10151273;29;20048;-78
2022/06/26 13:22:00;;;;;;;8.05;7.40;;;;;;;25.29;44.32;100414.22;10148958;29;20063;-78
2022/06/26 13:27:05;;;;;;;7.90;7.25;;;;;;;25.60;44.08;100404.28;10148269;29;20079;-78
2022/06/26 13:32:09;;;;;;;8.30;7.50;;;;;;;25.82;43.67;100408.38;10146002;29;20694;-78
2022/06/26 13:37:12;;;;;;;9.07;7.65;;;;;;;26.90;42.96;100403.44;10147696;29;20192;-78
2022/06/26 13:42:17;;;;;;;8.07;7.47;;;;;;;27.77;40.88;100400.28;10115812;29;20048;-78
2022/06/26 13:47:21;;;;;;;8.07;7.47;;;;;;;26.94;41.29;100401.94;10150135;29;20794;-78
2022/06/26 13:52:25;;;;;;;8.40;7.60;;;;;;;27.53;40.15;100399.41;10150389;29;20072;-78
2022/06/26 13:57:30;;;;;;;7.32;6.63;;;;;;;27.49;39.64;100400.97;10152398;29;20062;-78
2022/06/26 14:02:33;;;;;;;6.93;6.32;;;;;;;27.98;40.11;100407.19;10148187;29;20514;-78
2022/06/26 14:07:37;;;;;;;7.32;6.63;;;;;;;26.77;40.96;100406.34;10146537;29;20070;-78
2022/06/26 14:12:42;;;;;;;6.90;6.40;;;;;;;26.26;41.25;100411.16;10118369;29;20668;-78
2022/06/26 14:17:44;;;;;;;7.15;6.55;;;;;;;26.39;42.64;100410.19;10148414;29;20063;-78
2022/06/26 14:28:09;;;;;;;5.85;5.35;;;;;;;25.94;41.68;100402.13;10146339;29;20055;-79
2022/06/26 14:33:15;;;;;;;8.75;5.50;;;;;;;25.56;41.64;100401.16;10137776;29;20056;-79
2022/06/26 14:38:20;;;;;;;6.40;5.90;;;;;;;26.50;40.61;100402.00;10131722;29;20138;-78
2022/06/26 14:43:24;;;;;;;6.43;5.93;;;;;;;26.76;40.11;100400.00;10140715;29;20048;-78
2022/06/26 14:48:27;;;;;;;6.45;6.03;;;;;;;26.92;41.71;100380.09;10144619;29;20052;-79
2022/06/26 14:53:31;;;;;;;6.60;6.10;;;;;;;26.97;42.33;100373.91;10147180;29;20407;-78
2022/06/26 14:58:35;;;;;;;6.95;6.43;;;;;;;26.85;41.13;100379.38;10145294;29;20054;-78
2022/06/26 15:03:38;;;;;;;6.95;6.03;;;;;;;26.65;40.58;100378.72;10150234;29;20054;-79
2022/06/26 15:08:41;;;;;;;5.93;5.53;;;;;;;25.83;42.57;100374.28;10146575;29;20051;-78
2022/06/26 15:13:45;;;;;;;6.70;6.10;;;;;;;26.10;43.78;100384.19;10155143;29;20060;-78
2022/06/26 15:18:48;;;;;;;6.72;6.20;;;;;;;26.01;43.17;100387.25;10149391;29;20610;-78
2022/06/26 15:23:51;;;;;;;6.85;6.35;;;;;;;25.62;42.91;100392.00;10146977;29;20052;-78
2022/06/26 15:28:57;;;;;;;7.32;6.70;;;;;;;26.04;43.69;100374.94;10140889;29;20183;-78
2022/06/26 15:34:00;;;;;;;6.75;5.70;;;;;;;26.24;43.48;100366.50;10139554;29;20055;-77
2022/06/26 15:39:04;;;;;;;6.43;5.93;;;;;;;26.20;43.44;100359.75;10119552;29;21608;-78
2022/06/26 15:44:08;;;;;;;6.22;5.60;;;;;;;25.99;43.99;100352.75;10143218;29;20087;-78
2022/06/26 15:49:11;;;;;;;6.03;5.53;;;;;;;25.77;43.59;100346.84;10144951;29;20453;-79
2022/06/26 15:54:15;;;;;;;5.57;5.15;;;;;;;25.75;43.56;100341.53;10131307;29;20056;-79
2022/06/26 15:59:19;;;;;;;5.28;4.90;;;;;;;25.84;43.23;100342.97;10142974;29;20067;-77
2022/06/26 16:04:22;;;;;;;4.68;4.38;;;;;;;26.07;41.70;100335.94;10140245;29;20052;-77
2022/06/26 16:09:25;;;;;;;4.35;4.05;;;;;;;26.51;40.73;100339.50;10118023;29;20111;-77
2022/06/26 16:14:30;;;;;;;4.63;4.22;;;;;;;26.49;41.93;100341.63;10137296;29;20138;-78
2022/06/26 16:19:33;;;;;;;4.80;4.40;;;;;;;26.28;42.96;100345.72;10138194;29;20052;-78
2022/06/26 16:29:58;;;;;;;4.32;3.92;;;;;;;25.96;43.66;100320.19;10124768;29;20623;-79
2022/06/26 16:35:02;;;;;;;4.22;3.83;;;;;;;25.74;42.69;100325.28;10141997;29;20107;-78
2022/06/26 16:40:07;;;;;;;4.70;4.20;;;;;;;25.48;43.04;100321.69;10146556;29;20074;-79
2022/06/26 16:45:13;;;;;;;3.88;3.67;;;;;;;25.08;42.39;100326.63;10142387;29;20540;-77
2022/06/26 16:50:16;;;;;;;4.47;3.65;;;;;;;24.88;44.02;100330.31;10139646;29;20085;-78
2022/06/26 16:55:19;;;;;;;3.80;3.58;;;;;;;24.65;44.77;100330.00;10129292;29;20060;-77
2022/06/26 17:00:23;;;;;;;4.28;3.80;;;;;;;24.18;46.39;100330.16;10139525;29;20518;-78
2022/06/26 17:05:26;;;;;;;3.95;3.63;;;;;;;24.14;46.10;100336.31;10143980;29;20052;-76
2022/06/26 17:10:31;;;;;;;4.75;4.28;;;;;;;24.18;45.37;100338.38;10123027;29;20052;-77
2022/06/26 17:15:37;;;;;;;4.82;4.32;;;;;;;24.27;45.67;100341.72;10134479;29;20044;-78
2022/06/26 17:20:40;;;;;;;5.18;4.68;;;;;;;24.27;46.06;100339.84;10143113;29;20048;-78
2022/06/26 17:25:43;;;;;;;4.22;3.85;;;;;;;24.16;46.60;100342.38;10142853;29;20170;-76
2022/06/26 17:30:47;;;;;;;4.60;4.20;;;;;;;23.98;46.56;100348.56;10136929;29;20044;-77
2022/06/26 17:35:50;;;;;;;4.60;4.28;;;;;;;23.29;50.01;100347.09;10121854;29;20055;-77
2022/06/26 17:40:53;;;;;;;4.80;4.43;;;;;;;22.60;53.24;100350.84;10146525;29;20083;-77
2022/06/26 17:45:58;;;;;;;4.22;3.75;;;;;;;22.15;51.34;100351.22;10152445;29;20115;-78
2022/06/26 17:51:02;;;;;;;3.65;3.35;;;;;;;22.62;50.65;100343.28;10134162;29;20048;-77
2022/06/26 17:56:06;;;;;;;3.35;2.92;;;;;;;22.84;50.21;100347.56;10155541;29;20089;-78
2022/06/26 18:01:10;;;;;;;12.07;4.15;;;;;;;22.52;51.06;100346.41;10152069;29;20055;-78
2022/06/26 18:06:16;;;;;;;4.00;2.80;;;;;;;22.40;50.78;100348.00;10149335;29;20047;-77
2022/06/26 18:11:19;;;;;;;3.80;2.78;;;;;;;22.00;51.41;100345.06;10130982;29;20056;-77
2022/06/26 18:16:23;;;;;;;3.85;2.75;;;;;;;22.18;52.10;100325.38;10123661;29;20052;-77
2022/06/26 18:21:26;;;;;;;3.40;3.13;;;;;;;22.30;51.66;100315.56;10144789;29;20048;-76
2022/06/26 18:26:29;;;;;;;4.82;3.17;;;;;;;22.29;51.04;100311.13;10140923;29;21185;-78
2022/06/26 18:31:35;;;;;;;3.25;3.00;;;;;;;22.27;51.03;100302.25;10144656;29;20124;-78
2022/06/26 18:36:39;;;;;;;5.20;3.10;;;;;;;22.24;51.01;100298.06;10145442;29;21207;-76
2022/06/26 18:41:43;;;;;;;4.10;2.92;;;;;;;22.19;50.85;100286.00;10138322;29;20048;-77
2022/06/26 18:46:48;;;;;;;3.78;3.00;;;;;;;22.06;51.05;100295.84;10142433;29;20089;-77
2022/06/26 18:51:51;;;;;;;3.67;3.35;;;;;;;22.04;51.72;100299.84;10146029;29;20044;-76
2022/06/26 18:56:54;;;;;;;4.38;2.85;;;;;;;21.82;52.18;100324.50;10142037;29;20046;-77
2022/06/26 19:01:59;;;;;;;3.40;3.10;;;;;;;21.43;52.65;100320.41;10147365;29;20067;-78
2022/06/26 19:07:02;;;;;;;3.28;2.88;;;;;;;21.68;52.96;100301.69;10148376;29;21235;-77
2022/06/26 19:17:28;;;;;;;3.28;2.97;;;;;;;21.75;52.28;100307.25;10133403;29;20066;-77
2022/06/26 19:22:32;;;;;;;3.72;2.72;;;;;;;21.55;52.45;100319.88;10138757;29;20135;-77
2022/06/26 19:27:38;;;;;;;4.80;3.20;;;;;;;21.59;53.17;100316.53;10141269;29;20525;-79
2022/06/26 19:32:43;;;;;;;4.20;3.35;;;;;;;21.60;52.80;100311.91;10145760;29;20701;-78
2022/06/26 19:37:47;;;;;;;3.20;3.00;;;;;;;21.55;53.04;100320.69;10133298;29;20083;-78
2022/06/26 19:42:50;;;;;;;3.22;2.88;;;;;;;21.34;52.99;100323.50;10137178;29;20048;-76
2022/06/26 19:47:54;;;;;;;3.65;2.78;;;;;;;21.43;53.79;100335.97;10144989;29;20687;-77
2022/06/26 19:52:58;;;;;;;2.92;2.70;;;;;;;21.43;52.96;100345.00;10143772;29;20048;-78
2022/06/26 19:58:01;;;;;;;4.55;3.20;;;;;;;21.44;52.33;100348.56;10159915;29;20076;-78
2022/06/26 20:08:27;;;;;;;3.60;3.22;;;;;;;21.26;54.04;100335.41;10128225;29;20147;-77
2022/06/26 20:13:50;;;;;;;4.20;2.90;;;;;;;21.22;53.60;100345.84;10141351;29;20127;-77
2022/06/26 20:18:55;;;;;;;3.75;3.35;;;;;;;21.04;53.01;100352.81;10132430;29;20063;-76
2022/06/26 20:24:04;;;;;;;3.22;2.85;;;;;;;20.58;55.12;100353.94;10136436;28;20087;-76
2022/06/26 20:29:07;;;;;;;5.15;3.03;;;;;;;20.72;55.05;100349.47;10131279;29;20060;-77
2022/06/26 20:34:12;;;;;;;3.30;2.90;;;;;;;20.78;55.47;100340.53;10123873;29;20064;-78
2022/06/26 20:39:15;;;;;;;3.50;3.20;;;;;;;20.82;55.44;100328.19;10124024;29;20187;-78
2022/06/26 20:44:18;;;;;;;3.38;3.10;;;;;;;20.81;55.32;100320.19;10123722;29;20071;-78
2022/06/26 20:49:23;;;;;;;4.35;3.28;;;;;;;20.69;55.33;100320.69;10141239;29;20040;-78
2022/06/26 20:54:26;;;;;;;5.05;3.30;;;;;;;20.68;54.95;100335.38;10121777;29;20056;-79
2022/06/26 20:59:29;;;;;;;3.88;3.47;;;;;;;20.52;55.26;100336.44;10144479;29;20048;-78
2022/06/26 21:04:33;;;;;;;5.05;3.30;;;;;;;20.31;55.48;100337.22;10110558;29;20059;-78
2022/06/26 21:09:36;;;;;;;8.05;3.45;;;;;;;20.35;55.45;100332.25;10144311;29;20048;-78
2022/06/26 21:14:39;;;;;;;2.78;2.58;;;;;;;20.46;55.71;100318.13;10136481;29;20059;-78
2022/06/26 21:19:44;;;;;;;3.55;2.90;;;;;;;20.51;55.32;100303.88;10121531;29;20104;-78
2022/06/26 21:24:47;;;;;;;6.65;3.10;;;;;;;20.48;55.48;100293.34;10152787;29;21516;-78
2022/06/26 21:29:49;;;;;;;3.42;3.13;;;;;;;20.46;55.18;100282.66;10117625;29;20060;-79
2022/06/26 21:34:57;;;;;;;3.60;3.03;;;;;;;20.19;55.74;100297.81;10136528;29;20056;-78
2022/06/26 21:40:00;;;;;;;5.22;3.13;;;;;;;20.02;56.21;100296.28;10145753;29;20055;-78
2022/06/26 21:45:04;;;;;;;5.28;2.88;;;;;;;19.76;57.17;100291.31;10145208;29;20052;-78
2022/06/26 21:50:11;;;;;;;3.25;2.92;;;;;;;19.48;57.74;100304.69;10144604;29;20059;-78
2022/06/26 21:55:16;;;;;;;4.00;3.70;;;;;;;18.56;64.62;100338.13;10144123;29;20062;-78
2022/06/26 22:00:25;;;;;;;6.53;4.75;;;;;;;17.07;76.47;100376.53;10134888;29;20108;-78
2022/06/26 22:05:31;;;;;;;13.20;5.35;;;;;;;15.32;88.85;100402.91;10137835;29;20052;-76
2022/06/26 22:10:36;;;;;;;13.98;7.93;;;;;;;15.43;91.86;100359.41;10137926;29;20100;-78
2022/06/26 22:15:39;;;;;;;12.73;8.10;;;;;;;15.33;92.57;100341.50;10116250;29;20052;-77
2022/06/26 22:20:43;;;;;;;20.38;11.30;;;;;;;16.09;90.75;100322.75;10137293;29;20084;-77
2022/06/26 22:31:06;;;;;;;17.55;11.82;;;;;;;16.65;89.53;100308.75;10110889;29;20056;-79
2022/06/26 22:36:11;;;;;;;15.15;11.10;;;;;;;16.76;89.39;100289.50;10138368;29;20059;-78
2022/06/26 22:41:14;;;;;;;17.42;11.48;;;;;;;16.80;89.22;100288.97;10140953;29;20113;-77
2022/06/26 22:46:17;;;;;;;17.65;11.73;;;;;;;16.32;88.62;100316.81;10139727;29;20048;-78
2022/06/26 22:51:21;;;;;;;16.52;11.75;;;;;;;15.77;90.75;100322.56;10138632;29;20603;-76
2022/06/26 22:56:24;;;;;;;19.80;13.60;;;;;;;16.09;90.50;100340.88;10135723;29;20358;-77
2022/06/26 23:01:27;;;;;;;19.40;12.40;;;;;;;15.22;93.21;100399.44;10136228;29;20064;-78
2022/06/26 23:06:32;;;;;;;16.15;12.32;;;;;;;15.78;91.62;100394.72;10136827;29;20060;-78
2022/06/26 23:11:37;;;;;;;17.30;13.32;;;;;;;16.07;90.19;100389.84;10084458;29;20052;-77
2022/06/26 23:16:40;;;;;;;18.50;12.88;;;;;;;16.55;89.44;100345.00;10136740;29;20147;-78
2022/06/26 23:21:46;;;;;;;21.73;14.88;;;;;;;16.88;89.38;100304.41;10135510;29;20185;-77
2022/06/26 23:26:56;;;;;;;;;;;;;;;16.91;88.88;100274.22;10137125;29;20177;-78
2022/06/26 23:31:59;;;;;;;19.10;15.10;;;;;;;16.98;89.04;100269.84;10135514;29;20047;-78
2022/06/26 23:37:05;;;;;;;19.27;15.88;;;;;;;17.11;88.74;100279.31;10136923;29;20442;-77
2022/06/26 23:42:08;;;;;;;20.92;14.77;;;;;;;17.15;88.96;100259.84;10118584;29;20781;-78
2022/06/26 23:47:12;;;;;;;22.75;16.20;;;;;;;17.24;89.21;100233.56;10135413;29;20455;-78
2022/06/26 23:52:16;;;;;;;20.80;15.18;;;;;;;17.25;89.31;100238.81;10136484;29;20143;-77
2022/06/26 23:57:19;;;;;;;19.65;14.13;;;;;;;17.23;89.25;100237.31;10136740;29;20102;-78
